KDLF/DLF METAR and TAF weather

Enter ICAO airport designator
Station Type Date Time Source
KDLF METAR 2018/07/19 06:56 UTC NOAA

KDLF 190656Z AUTO 14009KT 10SM CLR 29/13 A2990 RMK AO2 SLP109 T02910129


Station Type Date Time Source
KDLF Decoded METAR 2018/07/19 06:56 UTC NOAA

Laughlin, Laughlin Air Force Base Auxiliary Airfield, TX, United States (KDLF) 29-07-00N 100-28-00W 294M
Jul 19, 2018 - 02:56 AM EDT / 2018.07.19 0656 UTC
Wind: from the SE (140 degrees) at 10 MPH (9 KT):0
Visibility: 10 mile(s):0
Sky conditions: clear
Temperature: 84.4 F (29.1 C)
Dew Point: 55.2 F (12.9 C)
Relative Humidity: 36%
Pressure (altimeter): 29.9 in. Hg (1012 hPa)
ob: KDLF 190656Z AUTO 14009KT 10SM CLR 29/13 A2990 RMK AO2 SLP109 T02910129
cycle: 7

Station Type Date Time Source
KDLF TAF 2018/07/19 05:28 UTC NOAA

TAF
AMD KDLF 190511Z 1905/2008 VRB06KT 9999 FEW280 QNH2981INS
BECMG 1916/1917 15010G15KT 9999 FEW050 QNH2982INS
BECMG 2000/2001 13009KT 9999 FEW080 FEW300 QNH2984INS TX40/1922Z TN24/1912Z LAST NO
AMDS AFT 1905 NEXT 1910


Example: see airport list